^^
Saratoga-Weather Station Historical Data
Daily Summary for February 13, 2021 Units:  Both    English   Metric
Daily Weekly Monthly Yearly Custom
  High: Low: Average:
Temperature: 80.2 °F /  26.8 °C 56.5 °F /  13.6 °C 67.8 °F /  19.9 °C
Dew Point: 56.7 °F /  13.7 °C 44.2 °F /  6.8 °C 50.7 °F /  10.4 °C
Humidity: 81% 29% 58%
Wind Speed: 10.1mph /  16.3km/h - 1.6mph /  2.6km/h
Wind Gust: 10mph /  16.1km/h - -
Wind- - South
Pressure: 30.3 in /  1026.1 hPa 30.2 in /  1022.4 hPa -
Precipitation: 0 in /  0.0 mm    
Historical Graphs
 
 
Tabular Data for February 13, 2021
Time Temperature Dew Point Pressure Wind Wind Speed Wind Gust Humidity Rainfall Rate (Hourly) solar
00:03 64 °F /  17.8 °C 56.3 °F /  13.5 °C 30.2in /  1022.7hPa West 2.9mph /  4.7km/h 5mph /  8km/h 76% 0in /  0.0mm 0 W/m2
00:08 64 °F /  17.8 °C 56.7 °F /  13.7 °C 30.2in /  1022.7hPa West 2.9mph /  4.7km/h 4mph /  6.4km/h 77% 0in /  0.0mm 0 W/m2
00:13 63.9 °F /  17.7 °C 56.5 °F /  13.6 °C 30.2in /  1023.0hPa West 2mph /  3.2km/h 3mph /  4.8km/h 77% 0in /  0.0mm 0 W/m2
00:18 63.9 °F /  17.7 °C 56.5 °F /  13.6 °C 30.2in /  1023.0hPa WSW 2mph /  3.2km/h 3mph /  4.8km/h 77% 0in /  0.0mm 0 W/m2
00:23 63.7 °F /  17.6 °C 56.3 °F /  13.5 °C 30.2in /  1023.0hPa West 2mph /  3.2km/h 3mph /  4.8km/h 77% 0in /  0.0mm 0 W/m2
00:28 63.5 °F /  17.5 °C 56.1 °F /  13.4 °C 30.2in /  1023.0hPa West 4mph /  6.4km/h 4mph /  6.4km/h 77% 0in /  0.0mm 0 W/m2
00:33 63.3 °F /  17.4 °C 55.9 °F /  13.3 °C 30.2in /  1023.0hPa West 2mph /  3.2km/h 3mph /  4.8km/h 77% 0in /  0.0mm 0 W/m2
00:38 63.3 °F /  17.4 °C 55.9 °F /  13.3 °C 30.2in /  1023.4hPa WNW 2.9mph /  4.7km/h 4mph /  6.4km/h 77% 0in /  0.0mm 0 W/m2
00:43 63.3 °F /  17.4 °C 55.6 °F /  13.1 °C 30.2in /  1023.4hPa West 0.9mph /  1.4km/h 3mph /  4.8km/h 76% 0in /  0.0mm 0 W/m2
00:48 63.3 °F /  17.4 °C 55.6 °F /  13.1 °C 30.2in /  1023.4hPa West 0.9mph /  1.4km/h 3mph /  4.8km/h 76% 0in /  0.0mm 0 W/m2
00:53 63.3 °F /  17.4 °C 55.6 °F /  13.1 °C 30.2in /  1023.4hPa Calm   3mph /  4.8km/h 76% 0in /  0.0mm 0 W/m2
00:58 63.1 °F /  17.3 °C 55.4 °F /  13 °C 30.2in /  1023.4hPa West 0.9mph /  1.4km/h 1mph /  1.6km/h 76% 0in /  0.0mm 0 W/m2
01:03 63 °F /  17.2 °C 55.2 °F /  12.9 °C 30.2in /  1023.4hPa NW 0.9mph /  1.4km/h 3mph /  4.8km/h 76% 0in /  0.0mm 0 W/m2
01:08 62.8 °F /  17.1 °C 55 °F /  12.8 °C 30.2in /  1023.4hPa Calm   1mph /  1.6km/h 76% 0in /  0.0mm 0 W/m2
01:13 62.6 °F /  17 °C 54.9 °F /  12.7 °C 30.2in /  1023.7hPa WSW 0.9mph /  1.4km/h 3mph /  4.8km/h 76% 0in /  0.0mm 0 W/m2
01:18 62.4 °F /  16.9 °C 54.7 °F /  12.6 °C 30.2in /  1023.7hPa Calm     76% 0in /  0.0mm 0 W/m2
01:23 62.2 °F /  16.8 °C 54.9 °F /  12.7 °C 30.2in /  1023.7hPa Calm     77% 0in /  0.0mm 0 W/m2
01:28 62.1 °F /  16.7 °C 54.7 °F /  12.6 °C 30.2in /  1023.7hPa Calm     77% 0in /  0.0mm 0 W/m2
01:33 61.7 °F /  16.5 °C 54.5 °F /  12.5 °C 30.2in /  1023.7hPa Calm   1mph /  1.6km/h 77% 0in /  0.0mm 0 W/m2
01:38 61.5 °F /  16.4 °C 54.7 °F /  12.6 °C 30.2in /  1023.7hPa Calm   2mph /  3.2km/h 78% 0in /  0.0mm 0 W/m2
01:43 61.3 °F /  16.3 °C 54.5 °F /  12.5 °C 30.2in /  1023.7hPa Calm   1mph /  1.6km/h 78% 0in /  0.0mm 0 W/m2
01:48 61.2 °F /  16.2 °C 54.7 °F /  12.6 °C 30.2in /  1023.7hPa WSW 2mph /  3.2km/h 2mph /  3.2km/h 79% 0in /  0.0mm 0 W/m2
01:53 61 °F /  16.1 °C 54.1 °F /  12.3 °C 30.2in /  1023.7hPa North 0.9mph /  1.4km/h 4mph /  6.4km/h 78% 0in /  0.0mm 0 W/m2
01:58 61.2 °F /  16.2 °C 54 °F /  12.2 °C 30.2in /  1023.7hPa Calm   3mph /  4.8km/h 77% 0in /  0.0mm 0 W/m2
02:03 61.3 °F /  16.3 °C 54.1 °F /  12.3 °C 30.2in /  1023.7hPa West 0.9mph /  1.4km/h 4mph /  6.4km/h 77% 0in /  0.0mm 0 W/m2
02:08 61.3 °F /  16.3 °C 54.1 °F /  12.3 °C 30.2in /  1023.7hPa WNW 4mph /  6.4km/h 4mph /  6.4km/h 77% 0in /  0.0mm 0 W/m2
02:13 61.3 °F /  16.3 °C 53.8 °F /  12.1 °C 30.2in /  1023.7hPa West 0.9mph /  1.4km/h 4mph /  6.4km/h 76% 0in /  0.0mm 0 W/m2
02:18 61.3 °F /  16.3 °C 53.8 °F /  12.1 °C 30.2in /  1023.7hPa WNW 0.9mph /  1.4km/h 4mph /  6.4km/h 76% 0in /  0.0mm 0 W/m2
02:23 61.3 °F /  16.3 °C 53.8 °F /  12.1 °C 30.2in /  1023.7hPa North 2.9mph /  4.7km/h 3mph /  4.8km/h 76% 0in /  0.0mm 0 W/m2
02:28 61.3 °F /  16.3 °C 53.8 °F /  12.1 °C 30.2in /  1023.7hPa Calm   2mph /  3.2km/h 76% 0in /  0.0mm 0 W/m2
02:33 61.2 °F /  16.2 °C 53.6 °F /  12 °C 30.2in /  1023.7hPa NNW 0.9mph /  1.4km/h 3mph /  4.8km/h 76% 0in /  0.0mm 0 W/m2
02:38 61.2 °F /  16.2 °C 53.2 °F /  11.8 °C 30.2in /  1024.0hPa Calm   3mph /  4.8km/h 75% 0in /  0.0mm 0 W/m2
02:43 61 °F /  16.1 °C 53.1 °F /  11.7 °C 30.2in /  1024.0hPa Calm   2mph /  3.2km/h 75% 0in /  0.0mm 0 W/m2
02:48 61 °F /  16.1 °C 53.1 °F /  11.7 °C 30.2in /  1024.0hPa West 2.9mph /  4.7km/h 3mph /  4.8km/h 75% 0in /  0.0mm 0 W/m2
02:53 60.8 °F /  16 °C 52.9 °F /  11.6 °C 30.2in /  1024.0hPa NW 0.9mph /  1.4km/h 4mph /  6.4km/h 75% 0in /  0.0mm 0 W/m2
02:58 60.6 °F /  15.9 °C 52.7 °F /  11.5 °C 30.2in /  1024.0hPa SW 2mph /  3.2km/h 4mph /  6.4km/h 75% 0in /  0.0mm 0 W/m2
03:03 60.8 °F /  16 °C 52.9 °F /  11.6 °C 30.2in /  1024.0hPa WSW 0.9mph /  1.4km/h 2mph /  3.2km/h 75% 0in /  0.0mm 0 W/m2
03:08 60.8 °F /  16 °C 52.9 °F /  11.6 °C 30.2in /  1023.7hPa WSW 0.9mph /  1.4km/h 4mph /  6.4km/h 75% 0in /  0.0mm 0 W/m2
03:13 60.6 °F /  15.9 °C 52.7 °F /  11.5 °C 30.2in /  1023.7hPa WSW 0.9mph /  1.4km/h 4mph /  6.4km/h 75% 0in /  0.0mm 0 W/m2
03:18 60.6 °F /  15.9 °C 52.7 °F /  11.5 °C 30.2in /  1023.7hPa Calm     75% 0in /  0.0mm 0 W/m2
03:23 60.4 °F /  15.8 °C 52.9 °F /  11.6 °C 30.2in /  1023.7hPa Calm   4mph /  6.4km/h 76% 0in /  0.0mm 0 W/m2
03:28 60.3 °F /  15.7 °C 52.7 °F /  11.5 °C 30.2in /  1024.0hPa Calm     76% 0in /  0.0mm 0 W/m2
03:33 59.9 °F /  15.5 °C 52.3 °F /  11.3 °C 30.2in /  1024.0hPa Calm     76% 0in /  0.0mm 0 W/m2
03:38 59.5 °F /  15.3 °C 52.3 °F /  11.3 °C 30.2in /  1024.0hPa Calm   1mph /  1.6km/h 77% 0in /  0.0mm 0 W/m2
03:43 59.4 °F /  15.2 °C 52.5 °F /  11.4 °C 30.2in /  1024.0hPa Calm   1mph /  1.6km/h 78% 0in /  0.0mm 0 W/m2
03:48 59 °F /  15 °C 52.2 °F /  11.2 °C 30.2in /  1024.0hPa North 0.9mph /  1.4km/h 2mph /  3.2km/h 78% 0in /  0.0mm 0 W/m2
03:53 59 °F /  15 °C 52.2 °F /  11.2 °C 30.2in /  1024.0hPa ENE 2mph /  3.2km/h 4mph /  6.4km/h 78% 0in /  0.0mm 0 W/m2
03:58 59.2 °F /  15.1 °C 52.3 °F /  11.3 °C 30.2in /  1024.0hPa Calm   4mph /  6.4km/h 78% 0in /  0.0mm 0 W/m2
04:03 59.2 °F /  15.1 °C 52.3 °F /  11.3 °C 30.2in /  1024.0hPa West 0.9mph /  1.4km/h 4mph /  6.4km/h 78% 0in /  0.0mm 0 W/m2
04:08 59.2 °F /  15.1 °C 52.3 °F /  11.3 °C 30.2in /  1024.0hPa WNW 2mph /  3.2km/h 6mph /  9.7km/h 78% 0in /  0.0mm 0 W/m2
04:13 59.2 °F /  15.1 °C 52.3 °F /  11.3 °C 30.2in /  1024.0hPa West 2.9mph /  4.7km/h 4mph /  6.4km/h 78% 0in /  0.0mm 0 W/m2
04:18 58.8 °F /  14.9 °C 52 °F /  11.1 °C 30.2in /  1023.7hPa WNW 0.9mph /  1.4km/h 4mph /  6.4km/h 78% 0in /  0.0mm 0 W/m2
04:23 58.6 °F /  14.8 °C 51.8 °F /  11 °C 30.2in /  1023.7hPa WNW 0.9mph /  1.4km/h 2mph /  3.2km/h 78% 0in /  0.0mm 0 W/m2
04:28 58.5 °F /  14.7 °C 52 °F /  11.1 °C 30.2in /  1023.7hPa Calm   1mph /  1.6km/h 79% 0in /  0.0mm 0 W/m2
04:33 58.3 °F /  14.6 °C 51.8 °F /  11 °C 30.2in /  1023.7hPa South 2mph /  3.2km/h 3mph /  4.8km/h 79% 0in /  0.0mm 0 W/m2
04:38 57.9 °F /  14.4 °C 51.8 °F /  11 °C 30.2in /  1023.7hPa Calm   1mph /  1.6km/h 80% 0in /  0.0mm 0 W/m2
04:43 57.7 °F /  14.3 °C 51.6 °F /  10.9 °C 30.2in /  1023.7hPa WSW 0.9mph /  1.4km/h 2mph /  3.2km/h 80% 0in /  0.0mm 0 W/m2
04:48 57.7 °F /  14.3 °C 51.6 °F /  10.9 °C 30.2in /  1023.7hPa East 0.9mph /  1.4km/h 2mph /  3.2km/h 80% 0in /  0.0mm 0 W/m2
04:53 57.7 °F /  14.3 °C 51.3 °F /  10.7 °C 30.2in /  1023.7hPa NNW 0.9mph /  1.4km/h 2mph /  3.2km/h 79% 0in /  0.0mm 0 W/m2
04:58 57.7 °F /  14.3 °C 51.3 °F /  10.7 °C 30.2in /  1023.7hPa NE 2mph /  3.2km/h 4mph /  6.4km/h 79% 0in /  0.0mm 0 W/m2
05:03 57.7 °F /  14.3 °C 51.3 °F /  10.7 °C 30.2in /  1024.0hPa NE 0.9mph /  1.4km/h 5mph /  8km/h 79% 0in /  0.0mm 0 W/m2
05:08 57.7 °F /  14.3 °C 51.6 °F /  10.9 °C 30.2in /  1024.0hPa North 0.9mph /  1.4km/h 2mph /  3.2km/h 80% 0in /  0.0mm 0 W/m2
05:13 57.6 °F /  14.2 °C 51.4 °F /  10.8 °C 30.2in /  1024.0hPa ENE 0.9mph /  1.4km/h 5mph /  8km/h 80% 0in /  0.0mm 0 W/m2
05:18 57.6 °F /  14.2 °C 51.1 °F /  10.6 °C 30.2in /  1024.0hPa NE 2mph /  3.2km/h 2mph /  3.2km/h 79% 0in /  0.0mm 0 W/m2
05:23 57.4 °F /  14.1 °C 51.3 °F /  10.7 °C 30.2in /  1024.0hPa Calm   5mph /  8km/h 80% 0in /  0.0mm 0 W/m2
05:28 57.4 °F /  14.1 °C 51.3 °F /  10.7 °C 30.2in /  1024.0hPa SSW 0.9mph /  1.4km/h 1mph /  1.6km/h 80% 0in /  0.0mm 0 W/m2
05:33 57.2 °F /  14 °C 51.1 °F /  10.6 °C 30.2in /  1024.0hPa WSW 0.9mph /  1.4km/h 2mph /  3.2km/h 80% 0in /  0.0mm 5 W/m2
05:38 57 °F /  13.9 °C 50.9 °F /  10.5 °C 30.2in /  1024.0hPa Calm   4mph /  6.4km/h 80% 0in /  0.0mm 7 W/m2
05:43 56.8 °F /  13.8 °C 50.7 °F /  10.4 °C 30.2in /  1024.0hPa Calm   3mph /  4.8km/h 80% 0in /  0.0mm 9 W/m2
05:48 57 °F /  13.9 °C 50.5 °F /  10.3 °C 30.2in /  1024.0hPa Calm   2mph /  3.2km/h 79% 0in /  0.0mm 11 W/m2
05:53 56.8 °F /  13.8 °C 50.4 °F /  10.2 °C 30.2in /  1024.0hPa Calm   2mph /  3.2km/h 79% 0in /  0.0mm 12 W/m2
05:58 56.8 °F /  13.8 °C 50.4 °F /  10.2 °C 30.3in /  1024.4hPa ESE 0.9mph /  1.4km/h 2mph /  3.2km/h 79% 0in /  0.0mm 16 W/m2
06:03 56.8 °F /  13.8 °C 50.7 °F /  10.4 °C 30.3in /  1024.4hPa ESE 0.9mph /  1.4km/h 2mph /  3.2km/h 80% 0in /  0.0mm 18 W/m2
06:08 56.7 °F /  13.7 °C 50.9 °F /  10.5 °C 30.3in /  1024.4hPa SE 2mph /  3.2km/h 3mph /  4.8km/h 81% 0in /  0.0mm 19 W/m2
06:13 56.5 °F /  13.6 °C 50.7 °F /  10.4 °C 30.3in /  1024.4hPa Calm   1mph /  1.6km/h 81% 0in /  0.0mm 21 W/m2
06:18 56.5 °F /  13.6 °C 50.7 °F /  10.4 °C 30.3in /  1024.4hPa Calm   3mph /  4.8km/h 81% 0in /  0.0mm 23 W/m2
06:23 56.5 °F /  13.6 °C 50.7 °F /  10.4 °C 30.3in /  1024.4hPa East 0.9mph /  1.4km/h 3mph /  4.8km/h 81% 0in /  0.0mm 23 W/m2
06:28 56.5 °F /  13.6 °C 50.4 °F /  10.2 °C 30.3in /  1024.7hPa Calm   3mph /  4.8km/h 80% 0in /  0.0mm 25 W/m2
06:33 56.5 °F /  13.6 °C 50.4 °F /  10.2 °C 30.3in /  1024.7hPa Calm   1mph /  1.6km/h 80% 0in /  0.0mm 26 W/m2
06:38 56.7 °F /  13.7 °C 50.5 °F /  10.3 °C 30.3in /  1024.7hPa Calm   3mph /  4.8km/h 80% 0in /  0.0mm 28 W/m2
06:43 56.7 °F /  13.7 °C 50.2 °F /  10.1 °C 30.3in /  1024.7hPa West 2.9mph /  4.7km/h 3mph /  4.8km/h 79% 0in /  0.0mm 28 W/m2
06:48 56.8 °F /  13.8 °C 50.4 °F /  10.2 °C 30.3in /  1024.7hPa ESE 0.9mph /  1.4km/h 2mph /  3.2km/h 79% 0in /  0.0mm 30 W/m2
06:53 57 °F /  13.9 °C 50.5 °F /  10.3 °C 30.3in /  1025.1hPa NNW 0.9mph /  1.4km/h 2mph /  3.2km/h 79% 0in /  0.0mm 30 W/m2
06:58 57 °F /  13.9 °C 50.5 °F /  10.3 °C 30.3in /  1025.1hPa ENE 0.9mph /  1.4km/h 3mph /  4.8km/h 79% 0in /  0.0mm 32 W/m2
07:03 57.2 °F /  14 °C 50.7 °F /  10.4 °C 30.3in /  1025.1hPa NE 0.9mph /  1.4km/h 3mph /  4.8km/h 79% 0in /  0.0mm 32 W/m2
07:08 57.2 °F /  14 °C 50.4 °F /  10.2 °C 30.3in /  1025.1hPa WNW 0.9mph /  1.4km/h 2mph /  3.2km/h 78% 0in /  0.0mm 33 W/m2
07:13 57.4 °F /  14.1 °C 50.5 °F /  10.3 °C 30.3in /  1025.1hPa ENE 0.9mph /  1.4km/h 3mph /  4.8km/h 78% 0in /  0.0mm 33 W/m2
07:18 57.4 °F /  14.1 °C 50.5 °F /  10.3 °C 30.3in /  1025.1hPa Calm   1mph /  1.6km/h 78% 0in /  0.0mm 33 W/m2
07:24 57.6 °F /  14.2 °C 50.7 °F /  10.4 °C 30.3in /  1025.1hPa NW 4mph /  6.4km/h 4mph /  6.4km/h 78% 0in /  0.0mm 35 W/m2
07:29 57.7 °F /  14.3 °C 50.9 °F /  10.5 °C 30.3in /  1025.1hPa NNW 0.9mph /  1.4km/h 6mph /  9.7km/h 78% 0in /  0.0mm 35 W/m2
07:34 57.7 °F /  14.3 °C 50.9 °F /  10.5 °C 30.3in /  1025.1hPa NNW 0.9mph /  1.4km/h 3mph /  4.8km/h 78% 0in /  0.0mm 37 W/m2
07:39 57.9 °F /  14.4 °C 51.1 °F /  10.6 °C 30.3in /  1025.4hPa West 2mph /  3.2km/h 6mph /  9.7km/h 78% 0in /  0.0mm 174 W/m2
07:44 58.3 °F /  14.6 °C 51.1 °F /  10.6 °C 30.3in /  1025.4hPa NNW 2mph /  3.2km/h 3mph /  4.8km/h 77% 0in /  0.0mm 246 W/m2
07:49 58.6 °F /  14.8 °C 51.4 °F /  10.8 °C 30.3in /  1025.4hPa North 0.9mph /  1.4km/h 3mph /  4.8km/h 77% 0in /  0.0mm 258 W/m2
07:54 59.2 °F /  15.1 °C 51.6 °F /  10.9 °C 30.3in /  1025.7hPa NW 2mph /  3.2km/h 2mph /  3.2km/h 76% 0in /  0.0mm 272 W/m2
07:59 59.7 °F /  15.4 °C 52.2 °F /  11.2 °C 30.3in /  1025.7hPa NE 2mph /  3.2km/h 3mph /  4.8km/h 76% 0in /  0.0mm 285 W/m2
08:04 60.4 °F /  15.8 °C 52.2 °F /  11.2 °C 30.3in /  1025.7hPa Calm   1mph /  1.6km/h 74% 0in /  0.0mm 295 W/m2
08:09 61.2 °F /  16.2 °C 52 °F /  11.1 °C 30.3in /  1025.7hPa Calm   2mph /  3.2km/h 72% 0in /  0.0mm 234 W/m2
08:14 61 °F /  16.1 °C 51.4 °F /  10.8 °C 30.3in /  1025.7hPa NNW 2mph /  3.2km/h 6mph /  9.7km/h 71% 0in /  0.0mm 132 W/m2
08:19 61.2 °F /  16.2 °C 52 °F /  11.1 °C 30.3in /  1025.7hPa NE 0.9mph /  1.4km/h 4mph /  6.4km/h 72% 0in /  0.0mm 53 W/m2
08:24 61.3 °F /  16.3 °C 51.8 °F /  11 °C 30.3in /  1025.7hPa ENE 0.9mph /  1.4km/h 6mph /  9.7km/h 71% 0in /  0.0mm 49 W/m2
08:29 61.9 °F /  16.6 °C 52.3 °F /  11.3 °C 30.3in /  1025.7hPa WNW 2mph /  3.2km/h 4mph /  6.4km/h 71% 0in /  0.0mm 49 W/m2
08:34 61.9 °F /  16.6 °C 52 °F /  11.1 °C 30.3in /  1025.7hPa NNW 2mph /  3.2km/h 6mph /  9.7km/h 70% 0in /  0.0mm 49 W/m2
08:39 61.9 °F /  16.6 °C 52 °F /  11.1 °C 30.3in /  1025.7hPa NNE 0.9mph /  1.4km/h 1mph /  1.6km/h 70% 0in /  0.0mm 47 W/m2
08:44 62.1 °F /  16.7 °C 52.2 °F /  11.2 °C 30.3in /  1025.7hPa NW 2mph /  3.2km/h 6mph /  9.7km/h 70% 0in /  0.0mm 47 W/m2
08:49 62.1 °F /  16.7 °C 51.8 °F /  11 °C 30.3in /  1025.7hPa East 4mph /  6.4km/h 4mph /  6.4km/h 69% 0in /  0.0mm 47 W/m2
08:54 62.2 °F /  16.8 °C 52 °F /  11.1 °C 30.3in /  1025.7hPa East 0.9mph /  1.4km/h 5mph /  8km/h 69% 0in /  0.0mm 47 W/m2
08:59 62.6 °F /  17 °C 52.3 °F /  11.3 °C 30.3in /  1025.7hPa WNW 4mph /  6.4km/h 4mph /  6.4km/h 69% 0in /  0.0mm 47 W/m2
09:04 62.4 °F /  16.9 °C 52.2 °F /  11.2 °C 30.3in /  1025.7hPa ENE 4mph /  6.4km/h 6mph /  9.7km/h 69% 0in /  0.0mm 47 W/m2
09:09 62.4 °F /  16.9 °C 52.2 °F /  11.2 °C 30.3in /  1026.1hPa NNE 2.9mph /  4.7km/h 4mph /  6.4km/h 69% 0in /  0.0mm 84 W/m2
09:14 62.8 °F /  17.1 °C 52 °F /  11.1 °C 30.3in /  1025.7hPa NE 2mph /  3.2km/h 6mph /  9.7km/h 68% 0in /  0.0mm 279 W/m2
09:19 63.1 °F /  17.3 °C 52.3 °F /  11.3 °C 30.3in /  1025.7hPa North 4mph /  6.4km/h 4mph /  6.4km/h 68% 0in /  0.0mm 483 W/m2
09:24 63.1 °F /  17.3 °C 52.3 °F /  11.3 °C 30.3in /  1025.7hPa ENE 2mph /  3.2km/h 4mph /  6.4km/h 68% 0in /  0.0mm 513 W/m2
09:29 63.1 °F /  17.3 °C 52.3 °F /  11.3 °C 30.3in /  1026.1hPa ESE 4mph /  6.4km/h 6mph /  9.7km/h 68% 0in /  0.0mm 533 W/m2
09:34 63.3 °F /  17.4 °C 52.5 °F /  11.4 °C 30.3in /  1026.1hPa ESE 2mph /  3.2km/h 8mph /  12.9km/h 68% 0in /  0.0mm 550 W/m2
09:39 63.3 °F /  17.4 °C 51.8 °F /  11 °C 30.3in /  1026.1hPa North 2mph /  3.2km/h 5mph /  8km/h 66% 0in /  0.0mm 563 W/m2
09:44 63.5 °F /  17.5 °C 52 °F /  11.1 °C 30.3in /  1026.1hPa ENE 2.9mph /  4.7km/h 6mph /  9.7km/h 66% 0in /  0.0mm 571 W/m2
09:49 63.7 °F /  17.6 °C 51.6 °F /  10.9 °C 30.3in /  1026.1hPa NNW 2.9mph /  4.7km/h 5mph /  8km/h 65% 0in /  0.0mm 587 W/m2
09:54 63.7 °F /  17.6 °C 51.3 °F /  10.7 °C 30.3in /  1026.1hPa East 2mph /  3.2km/h 3mph /  4.8km/h 64% 0in /  0.0mm 601 W/m2
09:59 64 °F /  17.8 °C 51.3 °F /  10.7 °C 30.3in /  1026.1hPa Calm   4mph /  6.4km/h 63% 0in /  0.0mm 617 W/m2
10:04 64.4 °F /  18 °C 52 °F /  11.1 °C 30.3in /  1026.1hPa North 0.9mph /  1.4km/h 4mph /  6.4km/h 64% 0in /  0.0mm 624 W/m2
10:09 64.6 °F /  18.1 °C 51.6 °F /  10.9 °C 30.3in /  1026.1hPa Calm   3mph /  4.8km/h 63% 0in /  0.0mm 49 W/m2
10:14 64.8 °F /  18.2 °C 51.4 °F /  10.8 °C 30.3in /  1026.1hPa East 0.9mph /  1.4km/h 2mph /  3.2km/h 62% 0in /  0.0mm 114 W/m2
10:19 65.1 °F /  18.4 °C 51.8 °F /  11 °C 30.3in /  1026.1hPa ENE 2.9mph /  4.7km/h 6mph /  9.7km/h 62% 0in /  0.0mm 663 W/m2
10:24 65.3 °F /  18.5 °C 52 °F /  11.1 °C 30.3in /  1026.1hPa NW 2mph /  3.2km/h 7mph /  11.3km/h 62% 0in /  0.0mm 673 W/m2
10:29 65.5 °F /  18.6 °C 51.6 °F /  10.9 °C 30.3in /  1026.1hPa ESE 0.9mph /  1.4km/h 7mph /  11.3km/h 61% 0in /  0.0mm 691 W/m2
10:34 65.7 °F /  18.7 °C 51.8 °F /  11 °C 30.3in /  1025.7hPa ENE 2.9mph /  4.7km/h 7mph /  11.3km/h 61% 0in /  0.0mm 700 W/m2
10:39 65.8 °F /  18.8 °C 50.7 °F /  10.4 °C 30.3in /  1025.7hPa WNW 2.9mph /  4.7km/h 5mph /  8km/h 58% 0in /  0.0mm 710 W/m2
10:44 65.8 °F /  18.8 °C 51.1 °F /  10.6 °C 30.3in /  1025.7hPa East 2mph /  3.2km/h 4mph /  6.4km/h 59% 0in /  0.0mm 726 W/m2
10:49 66.2 °F /  19 °C 52 °F /  11.1 °C 30.3in /  1025.7hPa NNW 2.9mph /  4.7km/h 4mph /  6.4km/h 60% 0in /  0.0mm 731 W/m2
10:54 66.2 °F /  19 °C 50.9 °F /  10.5 °C 30.3in /  1025.7hPa Calm   4mph /  6.4km/h 58% 0in /  0.0mm 744 W/m2
10:59 66.6 °F /  19.2 °C 50.9 °F /  10.5 °C 30.3in /  1025.7hPa WNW 0.9mph /  1.4km/h 5mph /  8km/h 57% 0in /  0.0mm 763 W/m2
11:04 66.7 °F /  19.3 °C 50.5 °F /  10.3 °C 30.3in /  1025.7hPa ENE 2.9mph /  4.7km/h 4mph /  6.4km/h 56% 0in /  0.0mm 770 W/m2
11:09 67.1 °F /  19.5 °C 51.4 °F /  10.8 °C 30.3in /  1025.7hPa NE 0.9mph /  1.4km/h 4mph /  6.4km/h 57% 0in /  0.0mm 780 W/m2
11:14 67.5 °F /  19.7 °C 51.3 °F /  10.7 °C 30.3in /  1025.7hPa ESE 2mph /  3.2km/h 3mph /  4.8km/h 56% 0in /  0.0mm 793 W/m2
11:19 67.6 °F /  19.8 °C 50.9 °F /  10.5 °C 30.3in /  1025.7hPa NW 0.9mph /  1.4km/h 4mph /  6.4km/h 55% 0in /  0.0mm 796 W/m2
11:24 67.6 °F /  19.8 °C 50.9 °F /  10.5 °C 30.3in /  1025.7hPa WNW 4mph /  6.4km/h 6mph /  9.7km/h 55% 0in /  0.0mm 800 W/m2
11:29 67.8 °F /  19.9 °C 52 °F /  11.1 °C 30.3in /  1025.7hPa NNW 4mph /  6.4km/h 6mph /  9.7km/h 57% 0in /  0.0mm 814 W/m2
11:34 68.2 °F /  20.1 °C 50.9 °F /  10.5 °C 30.3in /  1025.7hPa WNW 2mph /  3.2km/h 8mph /  12.9km/h 54% 0in /  0.0mm 824 W/m2
11:39 68.2 °F /  20.1 °C 51.4 °F /  10.8 °C 30.3in /  1025.7hPa NE 6mph /  9.7km/h 6mph /  9.7km/h 55% 0in /  0.0mm 831 W/m2
11:44 68.7 °F /  20.4 °C 51.4 °F /  10.8 °C 30.3in /  1025.7hPa ENE 4mph /  6.4km/h 6mph /  9.7km/h 54% 0in /  0.0mm 846 W/m2
11:49 69.3 °F /  20.7 °C 51.4 °F /  10.8 °C 30.3in /  1025.7hPa NNE 4mph /  6.4km/h 6mph /  9.7km/h 53% 0in /  0.0mm 853 W/m2
11:54 69.4 °F /  20.8 °C 51.6 °F /  10.9 °C 30.3in /  1025.7hPa NNW 0.9mph /  1.4km/h 5mph /  8km/h 53% 0in /  0.0mm 858 W/m2
11:59 69.3 °F /  20.7 °C 51.4 °F /  10.8 °C 30.3in /  1025.7hPa West 4mph /  6.4km/h 5mph /  8km/h 53% 0in /  0.0mm 865 W/m2
12:04 69.6 °F /  20.9 °C 52.2 °F /  11.2 °C 30.3in /  1025.7hPa NW 0.9mph /  1.4km/h 4mph /  6.4km/h 54% 0in /  0.0mm 875 W/m2
12:09 70.3 °F /  21.3 °C 51.8 °F /  11 °C 30.3in /  1025.7hPa ESE 0.9mph /  1.4km/h 3mph /  4.8km/h 52% 0in /  0.0mm 879 W/m2
12:14 70.7 °F /  21.5 °C 50 °F /  10 °C 30.3in /  1025.7hPa ESE 0.9mph /  1.4km/h 7mph /  11.3km/h 48% 0in /  0.0mm 879 W/m2
12:19 70.5 °F /  21.4 °C 52 °F /  11.1 °C 30.3in /  1025.7hPa North 2.9mph /  4.7km/h 5mph /  8km/h 52% 0in /  0.0mm 882 W/m2
12:24 70.7 °F /  21.5 °C 52.2 °F /  11.2 °C 30.3in /  1025.7hPa North 4mph /  6.4km/h 6mph /  9.7km/h 52% 0in /  0.0mm 888 W/m2
12:29 70.7 °F /  21.5 °C 52.2 °F /  11.2 °C 30.3in /  1025.7hPa NW 10.1mph /  16.3km/h 10mph /  16.1km/h 52% 0in /  0.0mm 898 W/m2
12:34 70.5 °F /  21.4 °C 51.4 °F /  10.8 °C 30.3in /  1025.7hPa East 2.9mph /  4.7km/h 7mph /  11.3km/h 51% 0in /  0.0mm 902 W/m2
12:39 71.1 °F /  21.7 °C 52.5 °F /  11.4 °C 30.3in /  1025.7hPa East 2.9mph /  4.7km/h 5mph /  8km/h 52% 0in /  0.0mm 912 W/m2
12:44 71.6 °F /  22 °C 52 °F /  11.1 °C 30.3in /  1025.7hPa ENE 4mph /  6.4km/h 9mph /  14.5km/h 50% 0in /  0.0mm 918 W/m2
12:49 72 °F /  22.2 °C 52.3 °F /  11.3 °C 30.3in /  1025.7hPa ENE 6.9mph /  11.1km/h 8mph /  12.9km/h 50% 0in /  0.0mm 919 W/m2
12:54 72 °F /  22.2 °C 51.3 °F /  10.7 °C 30.3in /  1025.7hPa ENE 2.9mph /  4.7km/h 9mph /  14.5km/h 48% 0in /  0.0mm 926 W/m2
12:59 71.6 °F /  22 °C 50.4 °F /  10.2 °C 30.3in /  1025.7hPa ENE 4.9mph /  7.9km/h 7mph /  11.3km/h 47% 0in /  0.0mm 932 W/m2
13:04 71.2 °F /  21.8 °C 50 °F /  10 °C 30.3in /  1025.7hPa NE 2mph /  3.2km/h 5mph /  8km/h 47% 0in /  0.0mm 939 W/m2
13:09 71.2 °F /  21.8 °C 50.5 °F /  10.3 °C 30.3in /  1025.7hPa ESE 4mph /  6.4km/h 7mph /  11.3km/h 48% 0in /  0.0mm 932 W/m2
13:14 71.6 °F /  22 °C 50.4 °F /  10.2 °C 30.3in /  1025.4hPa NNW 8.1mph /  13km/h 8mph /  12.9km/h 47% 0in /  0.0mm 939 W/m2
13:19 71.6 °F /  22 °C 48.6 °F /  9.2 °C 30.3in /  1025.4hPa WNW 2.9mph /  4.7km/h 3mph /  4.8km/h 44% 0in /  0.0mm 942 W/m2
13:24 71.8 °F /  22.1 °C 49.8 °F /  9.9 °C 30.3in /  1025.4hPa NNW 2.9mph /  4.7km/h 4mph /  6.4km/h 46% 0in /  0.0mm 942 W/m2
13:29 72.1 °F /  22.3 °C 50.2 °F /  10.1 °C 30.3in /  1025.4hPa NW 4mph /  6.4km/h 5mph /  8km/h 46% 0in /  0.0mm 939 W/m2
13:34 72.3 °F /  22.4 °C 50.4 °F /  10.2 °C 30.3in /  1025.4hPa NE 2mph /  3.2km/h 2mph /  3.2km/h 46% 0in /  0.0mm 942 W/m2
13:39 72.7 °F /  22.6 °C 50.7 °F /  10.4 °C 30.3in /  1025.4hPa North 4.9mph /  7.9km/h 5mph /  8km/h 46% 0in /  0.0mm 944 W/m2
13:44 73 °F /  22.8 °C 50.4 °F /  10.2 °C 30.3in /  1025.4hPa ENE 2.9mph /  4.7km/h 7mph /  11.3km/h 45% 0in /  0.0mm 944 W/m2
13:49 73.2 °F /  22.9 °C 50 °F /  10 °C 30.3in /  1025.4hPa NNE 0.9mph /  1.4km/h 3mph /  4.8km/h 44% 0in /  0.0mm 939 W/m2
13:54 73.4 °F /  23 °C 49.5 °F /  9.7 °C 30.3in /  1025.4hPa NNW 2mph /  3.2km/h 7mph /  11.3km/h 43% 0in /  0.0mm 935 W/m2
13:59 73.6 °F /  23.1 °C 47.8 °F /  8.8 °C 30.3in /  1025.4hPa NNW 4mph /  6.4km/h 9mph /  14.5km/h 40% 0in /  0.0mm 946 W/m2
14:04 73.6 °F /  23.1 °C 47.8 °F /  8.8 °C 30.3in /  1025.4hPa East 2.9mph /  4.7km/h 4mph /  6.4km/h 40% 0in /  0.0mm 944 W/m2
14:09 73.8 °F /  23.2 °C 48 °F /  8.9 °C 30.3in /  1025.4hPa SW 2mph /  3.2km/h 9mph /  14.5km/h 40% 0in /  0.0mm 942 W/m2
14:14 73.6 °F /  23.1 °C 49.1 °F /  9.5 °C 30.3in /  1025.1hPa ESE 2mph /  3.2km/h 2mph /  3.2km/h 42% 0in /  0.0mm 944 W/m2
14:19 73.9 °F /  23.3 °C 47.5 °F /  8.6 °C 30.3in /  1025.1hPa NE 2.9mph /  4.7km/h 10mph /  16.1km/h 39% 0in /  0.0mm 951 W/m2
14:24 74.1 °F /  23.4 °C 45.5 °F /  7.5 °C 30.3in /  1025.1hPa NNE 2mph /  3.2km/h 3mph /  4.8km/h 36% 0in /  0.0mm 947 W/m2
14:29 74.8 °F /  23.8 °C 48.9 °F /  9.4 °C 30.3in /  1025.1hPa NW 2.9mph /  4.7km/h 4mph /  6.4km/h 40% 0in /  0.0mm 946 W/m2
14:34 74.7 °F /  23.7 °C 49.5 °F /  9.7 °C 30.3in /  1025.1hPa Calm   3mph /  4.8km/h 41% 0in /  0.0mm 942 W/m2
14:39 74.8 °F /  23.8 °C 50.2 °F /  10.1 °C 30.3in /  1024.7hPa SE 2mph /  3.2km/h 4mph /  6.4km/h 42% 0in /  0.0mm 930 W/m2
14:44 75.4 °F /  24.1 °C 50 °F /  10 °C 30.3in /  1024.7hPa WSW 0.9mph /  1.4km/h 3mph /  4.8km/h 41% 0in /  0.0mm 930 W/m2
14:49 75.6 °F /  24.2 °C 47.5 °F /  8.6 °C 30.3in /  1024.7hPa ENE 0.9mph /  1.4km/h 4mph /  6.4km/h 37% 0in /  0.0mm 937 W/m2
14:54 75.6 °F /  24.2 °C 47.5 °F /  8.6 °C 30.3in /  1024.7hPa NNW 4mph /  6.4km/h 5mph /  8km/h 37% 0in /  0.0mm 930 W/m2
14:59 75.9 °F /  24.4 °C 49.1 °F /  9.5 °C 30.3in /  1024.7hPa WSW 0.9mph /  1.4km/h 2mph /  3.2km/h 39% 0in /  0.0mm 930 W/m2
15:04 76.3 °F /  24.6 °C 49.5 °F /  9.7 °C 30.3in /  1024.7hPa North 2.9mph /  4.7km/h 5mph /  8km/h 39% 0in /  0.0mm 923 W/m2
15:09 76.3 °F /  24.6 °C 48 °F /  8.9 °C 30.3in /  1024.7hPa East 2mph /  3.2km/h 3mph /  4.8km/h 37% 0in /  0.0mm 919 W/m2
15:14 76.1 °F /  24.5 °C 47.1 °F /  8.4 °C 30.3in /  1024.7hPa SSE 2mph /  3.2km/h 4mph /  6.4km/h 36% 0in /  0.0mm 912 W/m2
15:19 75.9 °F /  24.4 °C 48.6 °F /  9.2 °C 30.3in /  1024.4hPa NE 2.9mph /  4.7km/h 3mph /  4.8km/h 38% 0in /  0.0mm 905 W/m2
15:24 76.3 °F /  24.6 °C 48.7 °F /  9.3 °C 30.3in /  1024.4hPa NW 2.9mph /  4.7km/h 6mph /  9.7km/h 38% 0in /  0.0mm 891 W/m2
15:29 76.6 °F /  24.8 °C 48.4 °F /  9.1 °C 30.3in /  1024.4hPa North 2.9mph /  4.7km/h 6mph /  9.7km/h 37% 0in /  0.0mm 889 W/m2
15:34 76.6 °F /  24.8 °C 47.7 °F /  8.7 °C 30.3in /  1024.4hPa WNW 0.9mph /  1.4km/h 2mph /  3.2km/h 36% 0in /  0.0mm 886 W/m2
15:39 77.2 °F /  25.1 °C 48.9 °F /  9.4 °C 30.3in /  1024.4hPa NW 0.9mph /  1.4km/h 6mph /  9.7km/h 37% 0in /  0.0mm 881 W/m2
15:45 77.4 °F /  25.2 °C 46.8 °F /  8.2 °C 30.3in /  1024.4hPa NNW 2mph /  3.2km/h 8mph /  12.9km/h 34% 0in /  0.0mm 867 W/m2
15:50 77.4 °F /  25.2 °C 47.5 °F /  8.6 °C 30.3in /  1024.4hPa Calm   6mph /  9.7km/h 35% 0in /  0.0mm 861 W/m2
15:55 77.5 °F /  25.3 °C 48.6 °F /  9.2 °C 30.3in /  1024.4hPa NNE 0.9mph /  1.4km/h 8mph /  12.9km/h 36% 0in /  0.0mm 856 W/m2
16:00 77.5 °F /  25.3 °C 47.7 °F /  8.7 °C 30.3in /  1024.4hPa WSW 0.9mph /  1.4km/h 3mph /  4.8km/h 35% 0in /  0.0mm 847 W/m2
16:05 77.5 °F /  25.3 °C 48.6 °F /  9.2 °C 30.3in /  1024.4hPa West 0.9mph /  1.4km/h 4mph /  6.4km/h 36% 0in /  0.0mm 837 W/m2
16:10 77.5 °F /  25.3 °C 46.9 °F /  8.3 °C 30.3in /  1024.4hPa ESE 4mph /  6.4km/h 4mph /  6.4km/h 34% 0in /  0.0mm 826 W/m2
16:15 77.7 °F /  25.4 °C 46.4 °F /  8 °C 30.3in /  1024.4hPa ENE 2mph /  3.2km/h 6mph /  9.7km/h 33% 0in /  0.0mm 816 W/m2
16:20 78.1 °F /  25.6 °C 46.6 °F /  8.1 °C 30.2in /  1024.0hPa East 2mph /  3.2km/h 7mph /  11.3km/h 33% 0in /  0.0mm 805 W/m2
16:25 78.1 °F /  25.6 °C 45.9 °F /  7.7 °C 30.2in /  1024.0hPa East 2.9mph /  4.7km/h 4mph /  6.4km/h 32% 0in /  0.0mm 796 W/m2
16:30 78.1 °F /  25.6 °C 47.5 °F /  8.6 °C 30.2in /  1024.0hPa NNE 4mph /  6.4km/h 9mph /  14.5km/h 34% 0in /  0.0mm 786 W/m2
16:35 78.1 °F /  25.6 °C 47.5 °F /  8.6 °C 30.2in /  1024.0hPa NNW 0.9mph /  1.4km/h 4mph /  6.4km/h 34% 0in /  0.0mm 775 W/m2
16:40 78.4 °F /  25.8 °C 46.9 °F /  8.3 °C 30.2in /  1024.0hPa ENE 2.9mph /  4.7km/h 7mph /  11.3km/h 33% 0in /  0.0mm 763 W/m2
16:45 78.6 °F /  25.9 °C 47.1 °F /  8.4 °C 30.2in /  1024.0hPa East 0.9mph /  1.4km/h 5mph /  8km/h 33% 0in /  0.0mm 752 W/m2
16:50 78.8 °F /  26 °C 45.7 °F /  7.6 °C 30.2in /  1024.0hPa WSW 2.9mph /  4.7km/h 5mph /  8km/h 31% 0in /  0.0mm 740 W/m2
16:55 78.4 °F /  25.8 °C 46.9 °F /  8.3 °C 30.2in /  1024.0hPa ESE 2.9mph /  4.7km/h 7mph /  11.3km/h 33% 0in /  0.0mm 731 W/m2
17:00 78.6 °F /  25.9 °C 48.7 °F /  9.3 °C 30.2in /  1024.0hPa NNW 0.9mph /  1.4km/h 1mph /  1.6km/h 35% 0in /  0.0mm 719 W/m2
17:05 79.2 °F /  26.2 °C 44.2 °F /  6.8 °C 30.2in /  1024.0hPa WNW 0.9mph /  1.4km/h 5mph /  8km/h 29% 0in /  0.0mm 705 W/m2
17:10 79.3 °F /  26.3 °C 47.7 °F /  8.7 °C 30.2in /  1024.0hPa NE 4.9mph /  7.9km/h 6mph /  9.7km/h 33% 0in /  0.0mm 687 W/m2
17:15 79.2 °F /  26.2 °C 47.7 °F /  8.7 °C 30.2in /  1023.7hPa SE 0.9mph /  1.4km/h 2mph /  3.2km/h 33% 0in /  0.0mm 680 W/m2
17:20 79.2 °F /  26.2 °C 49.1 °F /  9.5 °C 30.2in /  1023.7hPa East 2mph /  3.2km/h 6mph /  9.7km/h 35% 0in /  0.0mm 661 W/m2
17:25 79.3 °F /  26.3 °C 48.6 °F /  9.2 °C 30.2in /  1023.7hPa SE 2mph /  3.2km/h 4mph /  6.4km/h 34% 0in /  0.0mm 650 W/m2
17:30 79.3 °F /  26.3 °C 46.9 °F /  8.3 °C 30.2in /  1023.7hPa NE 2mph /  3.2km/h 3mph /  4.8km/h 32% 0in /  0.0mm 640 W/m2
17:35 79.3 °F /  26.3 °C 48.6 °F /  9.2 °C 30.2in /  1023.7hPa ENE 2mph /  3.2km/h 5mph /  8km/h 34% 0in /  0.0mm 626 W/m2
17:40 79.5 °F /  26.4 °C 50.2 °F /  10.1 °C 30.2in /  1023.7hPa ESE 2mph /  3.2km/h 8mph /  12.9km/h 36% 0in /  0.0mm 613 W/m2
17:45 79.5 °F /  26.4 °C 48.7 °F /  9.3 °C 30.2in /  1023.7hPa ENE 4mph /  6.4km/h 8mph /  12.9km/h 34% 0in /  0.0mm 599 W/m2
17:50 79.3 °F /  26.3 °C 47.7 °F /  8.7 °C 30.2in /  1023.7hPa ESE 0.9mph /  1.4km/h 4mph /  6.4km/h 33% 0in /  0.0mm 584 W/m2
17:55 79.3 °F /  26.3 °C 48.6 °F /  9.2 °C 30.2in /  1023.4hPa SW 0.9mph /  1.4km/h 8mph /  12.9km/h 34% 0in /  0.0mm 573 W/m2
18:00 80.1 °F /  26.7 °C 51.4 °F /  10.8 °C 30.2in /  1023.4hPa ESE 2.9mph /  4.7km/h 6mph /  9.7km/h 37% 0in /  0.0mm 557 W/m2
18:05 80.2 °F /  26.8 °C 50.2 °F /  10.1 °C 30.2in /  1023.4hPa ESE 2.9mph /  4.7km/h 4mph /  6.4km/h 35% 0in /  0.0mm 543 W/m2
18:10 80.1 °F /  26.7 °C 50 °F /  10 °C 30.2in /  1023.4hPa WNW 0.9mph /  1.4km/h 6mph /  9.7km/h 35% 0in /  0.0mm 527 W/m2
18:15 79.9 °F /  26.6 °C 49.8 °F /  9.9 °C 30.2in /  1023.4hPa East 6.9mph /  11.1km/h 10mph /  16.1km/h 35% 0in /  0.0mm 510 W/m2
18:20 79.3 °F /  26.3 °C 50 °F /  10 °C 30.2in /  1023.4hPa Calm   4mph /  6.4km/h 36% 0in /  0.0mm 483 W/m2
18:25 79.3 °F /  26.3 °C 50 °F /  10 °C 30.2in /  1023.4hPa West 2.9mph /  4.7km/h 10mph /  16.1km/h 36% 0in /  0.0mm 448 W/m2
18:30 79.3 °F /  26.3 °C 50 °F /  10 °C 30.2in /  1023.4hPa Calm   2mph /  3.2km/h 36% 0in /  0.0mm 415 W/m2
18:35 79.5 °F /  26.4 °C 49.5 °F /  9.7 °C 30.2in /  1023.0hPa North 0.9mph /  1.4km/h 4mph /  6.4km/h 35% 0in /  0.0mm 378 W/m2
18:40 79.9 °F /  26.6 °C 51.3 °F /  10.7 °C 30.2in /  1023.0hPa NNW 0.9mph /  1.4km/h 3mph /  4.8km/h 37% 0in /  0.0mm 353 W/m2
18:45 79.7 °F /  26.5 °C 50.4 °F /  10.2 °C 30.2in /  1023.0hPa East 2mph /  3.2km/h 6mph /  9.7km/h 36% 0in /  0.0mm 325 W/m2
18:50 79.7 °F /  26.5 °C 50.4 °F /  10.2 °C 30.2in /  1023.0hPa NE 2mph /  3.2km/h 5mph /  8km/h 36% 0in /  0.0mm 297 W/m2
18:55 79.7 °F /  26.5 °C 50.4 °F /  10.2 °C 30.2in /  1023.0hPa Calm   6mph /  9.7km/h 36% 0in /  0.0mm 278 W/m2
19:00 79.5 °F /  26.4 °C 49.5 °F /  9.7 °C 30.2in /  1023.0hPa NW 2mph /  3.2km/h 4mph /  6.4km/h 35% 0in /  0.0mm 276 W/m2
19:05 79.5 °F /  26.4 °C 47.8 °F /  8.8 °C 30.2in /  1023.0hPa North 6mph /  9.7km/h 6mph /  9.7km/h 33% 0in /  0.0mm 290 W/m2
19:10 79.3 °F /  26.3 °C 50 °F /  10 °C 30.2in /  1023.0hPa NE 2.9mph /  4.7km/h 4mph /  6.4km/h 36% 0in /  0.0mm 316 W/m2
19:15 79.3 °F /  26.3 °C 49.3 °F /  9.6 °C 30.2in /  1023.0hPa East 0.9mph /  1.4km/h 3mph /  4.8km/h 35% 0in /  0.0mm 330 W/m2
19:20 79.7 °F /  26.5 °C 49.6 °F /  9.8 °C 30.2in /  1023.0hPa WNW 0.9mph /  1.4km/h 3mph /  4.8km/h 35% 0in /  0.0mm 323 W/m2
19:25 79.5 °F /  26.4 °C 48.7 °F /  9.3 °C 30.2in /  1023.0hPa NNE 4mph /  6.4km/h 5mph /  8km/h 34% 0in /  0.0mm 309 W/m2
19:30 79.3 °F /  26.3 °C 48.6 °F /  9.2 °C 30.2in /  1023.0hPa NE 2.9mph /  4.7km/h 3mph /  4.8km/h 34% 0in /  0.0mm 290 W/m2
19:35 79.7 °F /  26.5 °C 50.4 °F /  10.2 °C 30.2in /  1023.0hPa ENE 2mph /  3.2km/h 3mph /  4.8km/h 36% 0in /  0.0mm 255 W/m2
19:40 79.3 °F /  26.3 °C 49.3 °F /  9.6 °C 30.2in /  1023.0hPa ESE 0.9mph /  1.4km/h 4mph /  6.4km/h 35% 0in /  0.0mm 216 W/m2
19:45 79.2 °F /  26.2 °C 49.8 °F /  9.9 °C 30.2in /  1023.0hPa NNW 0.9mph /  1.4km/h 2mph /  3.2km/h 36% 0in /  0.0mm 190 W/m2
19:50 79.2 °F /  26.2 °C 49.1 °F /  9.5 °C 30.2in /  1022.7hPa East 0.9mph /  1.4km/h 4mph /  6.4km/h 35% 0in /  0.0mm 188 W/m2
19:55 79 °F /  26.1 °C 51.3 °F /  10.7 °C 30.2in /  1022.7hPa NE 2mph /  3.2km/h 3mph /  4.8km/h 38% 0in /  0.0mm 190 W/m2
20:00 79 °F /  26.1 °C 48.9 °F /  9.4 °C 30.2in /  1022.7hPa NW 2.9mph /  4.7km/h 4mph /  6.4km/h 35% 0in /  0.0mm 185 W/m2
20:05 78.6 °F /  25.9 °C 49.5 °F /  9.7 °C 30.2in /  1022.7hPa ESE 0.9mph /  1.4km/h 3mph /  4.8km/h 36% 0in /  0.0mm 169 W/m2
20:10 78.4 °F /  25.8 °C 49.3 °F /  9.6 °C 30.2in /  1022.7hPa Calm   2mph /  3.2km/h 36% 0in /  0.0mm 155 W/m2
20:15 78.3 °F /  25.7 °C 48.4 °F /  9.1 °C 30.2in /  1022.7hPa NE 0.9mph /  1.4km/h 4mph /  6.4km/h 35% 0in /  0.0mm 141 W/m2
20:20 78.1 °F /  25.6 °C 48.2 °F /  9 °C 30.2in /  1022.7hPa WNW 2mph /  3.2km/h 3mph /  4.8km/h 35% 0in /  0.0mm 128 W/m2
20:25 78.3 °F /  25.7 °C 48.4 °F /  9.1 °C 30.2in /  1022.7hPa NW 0.9mph /  1.4km/h 2mph /  3.2km/h 35% 0in /  0.0mm 114 W/m2
20:30 78.1 °F /  25.6 °C 47.5 °F /  8.6 °C 30.2in /  1022.7hPa Calm   3mph /  4.8km/h 34% 0in /  0.0mm 97 W/m2
20:35 77.9 °F /  25.5 °C 47.3 °F /  8.5 °C 30.2in /  1022.7hPa NE 0.9mph /  1.4km/h 2mph /  3.2km/h 34% 0in /  0.0mm 79 W/m2
20:40 77.7 °F /  25.4 °C 47.1 °F /  8.4 °C 30.2in /  1022.7hPa Calm   2mph /  3.2km/h 34% 0in /  0.0mm 79 W/m2
20:45 77.7 °F /  25.4 °C 47.1 °F /  8.4 °C 30.2in /  1022.7hPa NNW 0.9mph /  1.4km/h 3mph /  4.8km/h 34% 0in /  0.0mm 67 W/m2
20:50 77.7 °F /  25.4 °C 48.6 °F /  9.2 °C 30.2in /  1022.7hPa East 0.9mph /  1.4km/h 2mph /  3.2km/h 36% 0in /  0.0mm 63 W/m2
20:55 77.4 °F /  25.2 °C 49.1 °F /  9.5 °C 30.2in /  1022.7hPa Calm   3mph /  4.8km/h 37% 0in /  0.0mm 53 W/m2
21:00 77 °F /  25 °C 50.9 °F /  10.5 °C 30.2in /  1022.7hPa ESE 0.9mph /  1.4km/h 1mph /  1.6km/h 40% 0in /  0.0mm 44 W/m2
21:05 76.8 °F /  24.9 °C 51.3 °F /  10.7 °C 30.2in /  1022.7hPa Calm   1mph /  1.6km/h 41% 0in /  0.0mm 37 W/m2
21:10 75.9 °F /  24.4 °C 48.6 °F /  9.2 °C 30.2in /  1022.7hPa ENE 0.9mph /  1.4km/h 3mph /  4.8km/h 38% 0in /  0.0mm 18 W/m2
21:15 75.4 °F /  24.1 °C 50 °F /  10 °C 30.2in /  1022.4hPa ENE 0.9mph /  1.4km/h 1mph /  1.6km/h 41% 0in /  0.0mm 16 W/m2
21:20 74.7 °F /  23.7 °C 51.3 °F /  10.7 °C 30.2in /  1022.7hPa South 0.9mph /  1.4km/h 3mph /  4.8km/h 44% 0in /  0.0mm 14 W/m2
21:25 73.8 °F /  23.2 °C 51.1 °F /  10.6 °C 30.2in /  1022.4hPa South 0.9mph /  1.4km/h 1mph /  1.6km/h 45% 0in /  0.0mm 12 W/m2
21:30 72.9 °F /  22.7 °C 50.9 °F /  10.5 °C 30.2in /  1022.4hPa South 2mph /  3.2km/h 2mph /  3.2km/h 46% 0in /  0.0mm 9 W/m2
21:35 72.1 °F /  22.3 °C 50.7 °F /  10.4 °C 30.2in /  1022.4hPa Calm   1mph /  1.6km/h 47% 0in /  0.0mm 7 W/m2
21:40 71.8 °F /  22.1 °C 49.8 °F /  9.9 °C 30.2in /  1022.4hPa Calm   2mph /  3.2km/h 46% 0in /  0.0mm 5 W/m2
21:46 71.2 °F /  21.8 °C 51.1 °F /  10.6 °C 30.2in /  1022.4hPa East 0.9mph /  1.4km/h 1mph /  1.6km/h 49% 0in /  0.0mm 0 W/m2
21:51 70.9 °F /  21.6 °C 51.3 °F /  10.7 °C 30.2in /  1022.4hPa East 0.9mph /  1.4km/h 1mph /  1.6km/h 50% 0in /  0.0mm 0 W/m2
21:56 70.2 °F /  21.2 °C 51.3 °F /  10.7 °C 30.2in /  1022.7hPa Calm   1mph /  1.6km/h 51% 0in /  0.0mm 0 W/m2
22:01 69.4 °F /  20.8 °C 51.1 °F /  10.6 °C 30.2in /  1022.7hPa ESE 0.9mph /  1.4km/h 1mph /  1.6km/h 52% 0in /  0.0mm 0 W/m2
22:06 68.9 °F /  20.5 °C 50.5 °F /  10.3 °C 30.2in /  1022.7hPa Calm   1mph /  1.6km/h 52% 0in /  0.0mm 0 W/m2
22:11 68.4 °F /  20.2 °C 51.1 °F /  10.6 °C 30.2in /  1022.7hPa ESE 0.9mph /  1.4km/h 1mph /  1.6km/h 54% 0in /  0.0mm 0 W/m2
22:16 67.8 °F /  19.9 °C 51.1 °F /  10.6 °C 30.2in /  1022.7hPa Calm     55% 0in /  0.0mm 0 W/m2
22:21 67.3 °F /  19.6 °C 50.5 °F /  10.3 °C 30.2in /  1022.4hPa SW 0.9mph /  1.4km/h 3mph /  4.8km/h 55% 0in /  0.0mm 0 W/m2
22:26 67.1 °F /  19.5 °C 50.4 °F /  10.2 °C 30.2in /  1022.4hPa Calm   1mph /  1.6km/h 55% 0in /  0.0mm 0 W/m2
22:31 66.7 °F /  19.3 °C 50 °F /  10 °C 30.2in /  1022.4hPa SW 0.9mph /  1.4km/h 2mph /  3.2km/h 55% 0in /  0.0mm 0 W/m2
22:36 66.6 °F /  19.2 °C 50.4 °F /  10.2 °C 30.2in /  1022.4hPa Calm   1mph /  1.6km/h 56% 0in /  0.0mm 0 W/m2
22:41 66.4 °F /  19.1 °C 50.7 °F /  10.4 °C 30.2in /  1022.4hPa SW 0.9mph /  1.4km/h 2mph /  3.2km/h 57% 0in /  0.0mm 0 W/m2
22:46 66 °F /  18.9 °C 49.8 °F /  9.9 °C 30.2in /  1022.7hPa Calm   1mph /  1.6km/h 56% 0in /  0.0mm 0 W/m2
22:51 65.8 °F /  18.8 °C 49.6 °F /  9.8 °C 30.2in /  1022.4hPa SW 0.9mph /  1.4km/h 2mph /  3.2km/h 56% 0in /  0.0mm 0 W/m2
22:56 65.7 °F /  18.7 °C 49.5 °F /  9.7 °C 30.2in /  1022.4hPa Calm   2mph /  3.2km/h 56% 0in /  0.0mm 0 W/m2
23:01 65.7 °F /  18.7 °C 49.5 °F /  9.7 °C 30.2in /  1022.4hPa SW 0.9mph /  1.4km/h 2mph /  3.2km/h 56% 0in /  0.0mm 0 W/m2
23:06 65.5 °F /  18.6 °C 48.9 °F /  9.4 °C 30.2in /  1022.4hPa Calm   2mph /  3.2km/h 55% 0in /  0.0mm 0 W/m2
23:11 65.1 °F /  18.4 °C 49.1 °F /  9.5 °C 30.2in /  1022.4hPa SW 0.9mph /  1.4km/h 1mph /  1.6km/h 56% 0in /  0.0mm 0 W/m2
23:16 65.1 °F /  18.4 °C 49.1 °F /  9.5 °C 30.2in /  1022.4hPa SW 2mph /  3.2km/h 2mph /  3.2km/h 56% 0in /  0.0mm 0 W/m2
23:21 64.9 °F /  18.3 °C 49.3 °F /  9.6 °C 30.2in /  1022.4hPa Calm   2mph /  3.2km/h 57% 0in /  0.0mm 0 W/m2
23:26 64.8 °F /  18.2 °C 49.1 °F /  9.5 °C 30.2in /  1022.7hPa SW 0.9mph /  1.4km/h 2mph /  3.2km/h 57% 0in /  0.0mm 0 W/m2
23:31 64.6 °F /  18.1 °C 48.9 °F /  9.4 °C 30.2in /  1022.7hPa SW 0.9mph /  1.4km/h 2mph /  3.2km/h 57% 0in /  0.0mm 0 W/m2
23:36 64.2 °F /  17.9 °C 49.1 °F /  9.5 °C 30.2in /  1022.7hPa SW 0.9mph /  1.4km/h 1mph /  1.6km/h 58% 0in /  0.0mm 0 W/m2
23:41 63.9 °F /  17.7 °C 49.3 °F /  9.6 °C 30.2in /  1022.4hPa Calm   2mph /  3.2km/h 59% 0in /  0.0mm 0 W/m2
23:46 63.7 °F /  17.6 °C 49.1 °F /  9.5 °C 30.2in /  1022.4hPa Calm     59% 0in /  0.0mm 0 W/m2
23:51 63.1 °F /  17.3 °C 49.5 °F /  9.7 °C 30.2in /  1022.4hPa Calm   1mph /  1.6km/h 61% 0in /  0.0mm 0 W/m2
23:56 63 °F /  17.2 °C 49.3 °F /  9.6 °C 30.2in /  1022.4hPa Calm   2mph /  3.2km/h 61% 0in /  0.0mm 0 W/m2
Juneau County Weather
Compliments of Weather Underground - 2 mb